createdAt,value
2022-11-25T00:02:50.910Z,11.4
2022-11-25T00:08:28.538Z,11.4
2022-11-25T00:14:04.310Z,11.4
2022-11-25T00:19:40.935Z,11.4
2022-11-25T00:25:16.503Z,11.4
2022-11-25T00:30:51.510Z,11.4
2022-11-25T00:36:26.659Z,11.3
2022-11-25T00:42:02.601Z,11.3
2022-11-25T00:47:59.478Z,11.3
2022-11-25T00:53:32.059Z,11.3
2022-11-25T00:59:07.494Z,11.3
2022-11-25T01:04:42.925Z,11.3
2022-11-25T01:10:18.178Z,11.3
2022-11-25T01:15:53.667Z,11.3
2022-11-25T01:21:30.437Z,11.3
2022-11-25T01:27:06.022Z,11.3
2022-11-25T01:32:42.297Z,11.3
2022-11-25T01:38:17.603Z,11.2
2022-11-25T01:43:52.606Z,11.2
2022-11-25T01:49:49.495Z,11.2
2022-11-25T01:55:23.695Z,11.2
2022-11-25T02:00:58.814Z,11.2
2022-11-25T02:06:34.821Z,11.2
2022-11-25T02:12:09.752Z,11.1
2022-11-25T02:17:45.299Z,11.2
2022-11-25T02:23:20.454Z,11.2
2022-11-25T02:28:55.570Z,11.2
2022-11-25T02:34:30.448Z,11.2
2022-11-25T02:40:05.929Z,11.1
2022-11-25T02:45:41.506Z,11.1
2022-11-25T02:51:17.918Z,11
2022-11-25T02:56:53.282Z,11
2022-11-25T03:02:28.613Z,11
2022-11-25T03:08:04.816Z,11
2022-11-25T03:13:40.938Z,10.9
2022-11-25T03:19:17.868Z,10.9
2022-11-25T03:25:01.015Z,11
2022-11-25T03:30:36.223Z,11.1
2022-11-25T03:36:11.661Z,11.2
2022-11-25T03:41:46.818Z,11.3
2022-11-25T03:47:44.090Z,11.3
2022-11-25T03:53:18.024Z,11.3
2022-11-25T03:58:53.911Z,11.4
2022-11-25T04:04:29.669Z,11.4
2022-11-25T04:10:05.832Z,11.4
2022-11-25T04:15:40.872Z,11.5
2022-11-25T04:21:16.342Z,11.5
2022-11-25T04:26:51.288Z,11.6
2022-11-25T04:32:27.631Z,11.6
2022-11-25T04:38:02.611Z,11.6
2022-11-25T04:43:37.843Z,11.6
2022-11-25T04:49:34.904Z,11.7
2022-11-25T04:55:07.633Z,11.7
2022-11-25T05:00:43.102Z,11.7
2022-11-25T05:06:18.288Z,11.7
2022-11-25T05:11:53.382Z,11.8
2022-11-25T05:17:28.758Z,11.8
2022-11-25T05:23:04.292Z,11.9
2022-11-25T05:28:39.353Z,11.9
2022-11-25T05:34:15.424Z,11.9
2022-11-25T05:39:51.364Z,11.9
2022-11-25T05:45:26.600Z,11.9
2022-11-25T05:51:01.646Z,12
2022-11-25T05:56:37.405Z,12
2022-11-25T06:02:13.664Z,12
2022-11-25T06:07:49.736Z,12.1
2022-11-25T06:13:26.073Z,12.1
2022-11-25T06:19:01.385Z,12.1
2022-11-25T06:24:36.869Z,12.1
2022-11-25T06:30:13.138Z,12.1
2022-11-25T06:35:49.334Z,12.2
2022-11-25T06:41:24.195Z,12.2
2022-11-25T06:47:21.230Z,12.2
2022-11-25T06:52:54.288Z,12.2
2022-11-25T06:58:35.660Z,12.2
2022-11-25T07:04:12.271Z,12.2
2022-11-25T07:09:48.917Z,12.2
2022-11-25T07:15:24.170Z,12.3
2022-11-25T07:20:59.564Z,12.3
2022-11-25T07:26:34.470Z,12.3
2022-11-25T07:32:10.860Z,12.3
2022-11-25T07:37:47.240Z,12.3
2022-11-25T07:43:23.530Z,12.3
2022-11-25T07:49:20.272Z,12.3
2022-11-25T07:54:53.772Z,12
2022-11-25T08:00:51.496Z,11.5
2022-11-25T08:06:35.870Z,11.4
2022-11-25T08:12:31.710Z,11.1
2022-11-25T08:18:11.101Z,11
2022-11-25T08:23:46.380Z,11
2022-11-25T08:29:22.602Z,11.1
2022-11-25T08:34:57.619Z,11.3
2022-11-25T08:40:36.556Z,11.2
2022-11-25T08:46:12.806Z,11.1
2022-11-25T08:51:51.369Z,11.2
2022-11-25T08:57:48.831Z,11
2022-11-25T09:03:28.536Z,11
2022-11-25T09:09:04.015Z,10.8
2022-11-25T09:15:02.728Z,10.7
2022-11-25T09:20:46.097Z,10.8
2022-11-25T09:26:28.496Z,10.9
2022-11-25T09:32:04.375Z,11
2022-11-25T09:37:49.345Z,11.2
2022-11-25T09:43:35.296Z,11.2
2022-11-25T09:49:10.345Z,11.2
2022-11-25T09:55:12.618Z,11.7
2022-11-25T10:00:49.011Z,12.1
2022-11-25T10:06:24.883Z,12
2022-11-25T10:12:01.057Z,11.8
2022-11-25T10:17:36.135Z,11.2
2022-11-25T10:23:15.098Z,11.1
2022-11-25T10:28:59.134Z,11.3
2022-11-25T10:34:40.234Z,11.3
2022-11-25T10:40:14.946Z,11.7
2022-11-25T10:45:53.618Z,11.8
2022-11-25T10:51:29.419Z,11.8
2022-11-25T10:57:04.565Z,11.7
2022-11-25T11:02:43.553Z,11.9
2022-11-25T11:08:24.739Z,12.2
2022-11-25T11:14:00.165Z,12
2022-11-25T11:19:35.021Z,11.6
2022-11-25T11:25:10.666Z,12.3
2022-11-25T11:30:48.052Z,12.4
2022-11-25T11:36:23.017Z,12.8
2022-11-25T11:42:01.869Z,13.2
2022-11-25T11:47:39.243Z,13.6
2022-11-25T11:53:31.097Z,14.1
2022-11-25T11:59:15.884Z,14.6
2022-11-25T12:04:57.858Z,14
2022-11-25T12:10:51.156Z,13.6
2022-11-25T12:16:26.175Z,14
2022-11-25T12:22:02.977Z,13.3
2022-11-25T12:27:43.727Z,12.9
2022-11-25T12:33:18.806Z,13.3
2022-11-25T12:38:54.237Z,13.6
2022-11-25T12:44:33.641Z,13.2
2022-11-25T12:50:11.750Z,12.8
2022-11-25T12:55:55.764Z,13.4
2022-11-25T13:01:39.951Z,14.1
2022-11-25T13:07:17.816Z,14.3
2022-11-25T13:12:54.171Z,15.2
2022-11-25T13:18:53.517Z,15.8
2022-11-25T13:24:31.278Z,16.5
2022-11-25T13:30:27.178Z,16.1
2022-11-25T13:36:03.282Z,14.5
2022-11-25T13:41:38.871Z,14.7
2022-11-25T13:49:03.766Z,16.7
2022-11-25T13:54:36.610Z,15.4
2022-11-25T14:00:14.619Z,14
2022-11-25T14:05:55.308Z,13.6
2022-11-25T14:11:37.952Z,13.6
2022-11-25T14:17:14.987Z,13.8
2022-11-25T14:22:52.907Z,14
2022-11-25T14:28:52.600Z,13.2
2022-11-25T14:34:27.719Z,12.6
2022-11-25T14:40:07.142Z,12.1
2022-11-25T14:45:45.555Z,11.8
2022-11-25T14:51:23.310Z,11.6
2022-11-25T14:57:02.578Z,12.6
2022-11-25T15:02:38.627Z,13.2
2022-11-25T15:08:16.658Z,12.4
2022-11-25T15:13:54.464Z,12.6
2022-11-25T15:19:33.804Z,12.2
2022-11-25T15:25:12.123Z,11.5
2022-11-25T15:30:53.924Z,11.2
2022-11-25T15:36:30.939Z,11
2022-11-25T15:42:07.017Z,10.7
2022-11-25T15:48:07.259Z,10.6
2022-11-25T15:53:41.603Z,10.3
2022-11-25T15:59:21.237Z,10.1
2022-11-25T16:05:14.519Z,10.1
2022-11-25T16:11:34.258Z,9.9
2022-11-25T16:17:09.913Z,9.8
2022-11-25T16:23:14.993Z,9.9
2022-11-25T16:28:50.721Z,9.7
2022-11-25T16:34:38.213Z,9.5
2022-11-25T16:40:15.934Z,9.3
2022-11-25T16:45:51.599Z,9.3
2022-11-25T16:51:29.797Z,9.6
2022-11-25T16:57:04.954Z,9.6
2022-11-25T17:02:40.499Z,9.7
2022-11-25T17:08:17.833Z,9.8
2022-11-25T17:14:19.668Z,10.3
2022-11-25T17:20:04.884Z,10.8
2022-11-25T17:25:40.382Z,11
2022-11-25T17:31:15.409Z,11.1
2022-11-25T17:37:08.846Z,11.1
2022-11-25T17:42:45.483Z,11.1
2022-11-25T17:48:27.238Z,11.2
2022-11-25T17:54:05.689Z,11.2
2022-11-25T17:59:40.997Z,11.3
2022-11-25T18:05:23.003Z,11.3
2022-11-25T18:10:58.238Z,11.4
2022-11-25T18:16:36.348Z,11.5
2022-11-25T18:22:13.423Z,11.5
2022-11-25T18:27:48.658Z,11.5
2022-11-25T18:33:26.044Z,11.5
2022-11-25T18:39:05.649Z,11.6
2022-11-25T18:44:53.827Z,11.6
2022-11-25T18:50:28.702Z,11.6
2022-11-25T18:56:06.263Z,11.6
2022-11-25T19:01:52.367Z,11.7
2022-11-25T19:07:38.238Z,11.8
2022-11-25T19:13:14.156Z,11.8
2022-11-25T19:18:49.267Z,11.8
2022-11-25T19:24:29.155Z,11.8
2022-11-25T19:30:04.847Z,11.8
2022-11-25T19:35:49.992Z,11.8
2022-11-25T19:41:29.183Z,11.7
2022-11-25T19:47:31.187Z,11.6
2022-11-25T19:53:03.908Z,11.5
2022-11-25T19:58:43.097Z,11.5
2022-11-25T20:04:17.900Z,11.4
2022-11-25T20:09:55.691Z,11.4
2022-11-25T20:15:30.873Z,11.4
2022-11-25T20:21:06.983Z,11.3
2022-11-25T20:26:51.258Z,11.3
2022-11-25T20:32:31.277Z,11.3
2022-11-25T20:38:08.488Z,11.2
2022-11-25T20:43:44.007Z,11.2
2022-11-25T20:49:43.971Z,11.2
2022-11-25T20:55:18.206Z,11.1
2022-11-25T21:01:14.313Z,11.1
2022-11-25T21:06:52.179Z,11
2022-11-25T21:07:40.417Z,11
2022-11-25T21:13:17.890Z,11
2022-11-25T21:18:53.897Z,11
2022-11-25T21:24:41.406Z,11
2022-11-25T21:30:17.068Z,10.9
2022-11-25T21:36:03.373Z,10.9
2022-11-25T21:41:39.282Z,10.9
2022-11-25T21:47:57.221Z,10.9
2022-11-25T21:53:43.228Z,10.9
2022-11-25T21:59:21.305Z,10.9
2022-11-25T22:04:56.501Z,10.9
2022-11-25T22:10:32.264Z,10.8
2022-11-25T22:16:07.575Z,10.8
2022-11-25T22:21:43.797Z,10.8
2022-11-25T22:27:18.923Z,10.8
2022-11-25T22:32:53.959Z,10.7
2022-11-25T22:38:28.652Z,10.7
2022-11-25T22:44:03.769Z,10.7
2022-11-25T22:49:38.713Z,10.6
2022-11-25T22:55:15.078Z,10.6
2022-11-25T23:00:51.311Z,10.5
2022-11-25T23:06:27.964Z,10.5
2022-11-25T23:12:07.291Z,10.4
2022-11-25T23:17:42.232Z,10.4
2022-11-25T23:23:18.882Z,10.3
2022-11-25T23:28:53.552Z,10.3
2022-11-25T23:34:28.621Z,10.2
2022-11-25T23:40:03.470Z,10.2
2022-11-25T23:45:38.686Z,10.2
2022-11-25T23:51:14.961Z,10.1
2022-11-25T23:56:52.904Z,10.1
